Arizona State University, AZ

1:35 PM MST on September 19, 2014 (GMT -0700)
Falcon Field | Change Station
CLOSE
Current Station
Airport
Location: Mesa,
Elevation: 1391 ft
Nearby Weather Stations

Elev 1391 ft 33.46 °N, 111.73 °W | Updated 1 hour ago

Partly Cloudy
Partly Cloudy
90 °F
Feels Like 93 °F
N
6
Wind Variable Wind from SE

Today
High -- | Low -- °F
--% Chance of Precip.
Yesterday
High -- | Low -- °F
Precip. -- in
6:13 AM 6:28 PM
Waning Crescent, 17% visible
Pressure 29.83 in
Visibility 40.0 miles
Clouds Scattered Clouds 5000 ft
Scattered Clouds 10000 ft
Heat Index 93 °F
Dew Point 68 °F
Humidity 49%
Rainfall 0.00 in
Snow Depth 0 in
UV 7 out of 12
Pollen 6.30 out of 12
Ozone Good
PM2.5 Good
Flu Activity Not available.
METAR KFFZ 191850Z 14005KT 40SM SCT050 SCT100 32/20 A2983

More Conditions Fewer Conditions

Pressure 29.83 in
Visibility 40.0 miles
Clouds Scattered Clouds 5000 ft
Scattered Clouds 10000 ft
Heat Index 93 °F
Dew Point 68 °F
Humidity 49%
Rainfall 0.00 in
Snow Depth 0 in
UV 7 out of 12
Pollen 6.30 out of 12
Ozone Good
PM2.5 Good
Flu Activity Not available.
METAR KFFZ 191850Z 14005KT 40SM SCT050 SCT100 32/20 A2983

More Conditions Fewer Conditions

10-Day Weather Forecast

Almanac

Astronomy

Sep. 19, 2014 Rise Set
Actual Time 6:13 AM MST 6:28 PM MST
Civil Twilight 5:49 AM MST 6:53 PM MST
Nautical Twilight 5:20 AM MST 7:22 PM MST
Astronomical Twilight 4:50 AM MST 7:51 PM MST
Moon 2:12 AM MST 3:50 PM MST
Length of Visible Light 13h 04m
Length of Day
12h 14m
Tomorrow will be 2m 3s shorter.
Waning Crescent, 17% of the Moon is Illuminated
Today
Waning Crescent
Sep 24
New
Oct 1
First Quarter
Oct 8
Full
Oct 15
Last Quarter

Today's Extremes

State Highs State Lows

Community

WunderPhotos

Upload Photos

1,754,694 photos uploaded!

WunderBlogs® & News

By Dr. Jeff Masters
Director of Meteorology, Weather Underground
By Kari Strenfel
Meteorologist, Weather Underground
By Christopher C. Burt
Weather Historian, Weather Underground
September 19, 2014
September 19, 2014
September 19, 2014

Nearby

Air Quality

  Air Quality AQ Index Pollutant
Yesterday Good
OZONE
Yesterday Good
PM10
Current Good
OZONE
Current Good
PM2.5
Friday Good
OZONE
Friday Good
PM10
Friday Good
CO
Saturday Moderate
OZONE
Saturday Good
PM10
Saturday Good
CO
Sunday Moderate
OZONE
Sunday Good
PM10
Sunday Good
CO

Snow Depth

Station Depth Elevation
Workman Creek 1 in 6900 ft
Beaver Head 0 in 7990 ft
Snowslide Canyon 0 in 9730 ft

Earthquake Activity

City Distance Mag. Time & Date
No recent earthquake activity has been reported nearby.
Minimum magnitude displayed is 2.5.

Coastal Water Temperatures

Place Temperature
No Stations Reporting

Nearby Weather Stations